Time;durP1;ratioP1;P1;durP2;ratioP2;P2;SDS_P1;SDS_P2;PMS_P1;PMS_P2;Temp;Humidity;BMP_temperature;BMP_pressure;BME280_temperature;BME280_humidity;BME280_pressure;Samples;Min_cycle;Max_cycle;Signal;HPM_P1;HPM_P2
2021/06/09 00:02:21;;;;;;;14.20;12.88;;;16.80;99.90;;;;;;5073305;28;20233;-40
2021/06/09 00:04:49;;;;;;;14.52;13.32;;;16.80;99.90;;;;;;5073616;28;20309;-40
2021/06/09 00:07:16;;;;;;;14.25;13.10;;;16.80;99.90;;;;;;5073408;28;20298;-40
2021/06/09 00:09:43;;;;;;;14.40;13.13;;;16.70;99.90;;;;;;5073289;28;20350;-41
2021/06/09 00:12:11;;;;;;;14.02;12.82;;;16.70;99.90;;;;;;5073450;28;20314;-40
2021/06/09 00:14:39;;;;;;;14.60;13.20;;;16.70;99.90;;;;;;5073447;28;20211;-38
2021/06/09 00:17:06;;;;;;;13.02;11.95;;;16.70;99.90;;;;;;5073220;28;20298;-38
2021/06/09 00:19:35;;;;;;;14.00;12.82;;;16.60;99.90;;;;;;5073042;28;20204;-39
2021/06/09 00:22:04;;;;;;;14.50;13.20;;;16.60;99.90;;;;;;5072981;28;20298;-38
2021/06/09 00:24:32;;;;;;;14.15;13.07;;;16.60;99.90;;;;;;5072948;28;20684;-38
2021/06/09 00:27:00;;;;;;;14.35;13.15;;;16.60;99.90;;;;;;5073294;28;20241;-39
2021/06/09 00:29:27;;;;;;;14.48;13.38;;;16.60;99.90;;;;;;5073125;28;20218;-39
2021/06/09 00:31:55;;;;;;;13.25;12.18;;;16.50;99.90;;;;;;5073032;28;20319;-39
2021/06/09 00:34:22;;;;;;;13.40;12.30;;;16.50;99.90;;;;;;5072785;28;20677;-38
2021/06/09 00:36:51;;;;;;;13.95;12.75;;;16.40;99.90;;;;;;5072713;28;20250;-39
2021/06/09 00:39:18;;;;;;;13.77;12.77;;;16.40;99.90;;;;;;5073009;28;20290;-38
2021/06/09 00:41:46;;;;;;;13.85;12.73;;;16.40;99.90;;;;;;5072687;28;20269;-38
2021/06/09 00:44:14;;;;;;;14.35;13.20;;;16.40;99.90;;;;;;5072733;28;20661;-39
2021/06/09 00:46:42;;;;;;;16.60;13.32;;;16.30;99.90;;;;;;5072584;28;20207;-39
2021/06/09 00:49:10;;;;;;;14.10;12.73;;;16.30;99.90;;;;;;5072580;28;20212;-40
2021/06/09 00:51:38;;;;;;;13.80;12.70;;;16.30;99.90;;;;;;5072363;28;20238;-39
2021/06/09 00:54:08;;;;;;;15.75;14.20;;;16.30;99.90;;;;;;5072548;28;20306;-38
2021/06/09 00:56:38;;;;;;;13.95;12.68;;;16.20;99.90;;;;;;5072405;28;20650;-38
2021/06/09 00:59:07;;;;;;;15.45;14.05;;;16.20;99.90;;;;;;5071785;28;20207;-38
2021/06/09 01:01:35;;;;;;;15.35;14.15;;;16.10;99.90;;;;;;5072356;28;20235;-38
2021/06/09 01:04:04;;;;;;;14.52;13.13;;;16.10;99.90;;;;;;5072323;28;20211;-39
2021/06/09 01:06:31;;;;;;;15.38;14.15;;;16.10;99.90;;;;;;5072170;28;20522;-38
2021/06/09 01:08:59;;;;;;;14.63;13.43;;;16.10;99.90;;;;;;5072404;28;20302;-38
2021/06/09 01:11:28;;;;;;;15.48;14.23;;;16.00;99.90;;;;;;5072321;28;20207;-38
2021/06/09 01:13:57;;;;;;;15.18;13.98;;;16.00;99.90;;;;;;5072143;28;20302;-38
2021/06/09 01:16:25;;;;;;;14.98;13.70;;;16.00;99.90;;;;;;5072126;28;20210;-38
2021/06/09 01:18:53;;;;;;;15.45;14.15;;;16.00;99.90;;;;;;5072203;28;20276;-38
2021/06/09 01:21:26;;;;;;;16.00;14.60;;;16.00;99.90;;;;;;5072057;28;20243;-39
2021/06/09 01:23:54;;;;;;;15.02;13.82;;;15.90;99.90;;;;;;5072099;28;20210;-38
2021/06/09 01:26:21;;;;;;;15.63;14.32;;;15.90;99.90;;;;;;5072046;28;20207;-38
2021/06/09 01:28:49;;;;;;;14.63;13.18;;;15.90;99.90;;;;;;5072021;28;20207;-38
2021/06/09 01:31:16;;;;;;;14.93;13.73;;;15.80;99.90;;;;;;5071949;28;20309;-39
2021/06/09 01:33:45;;;;;;;15.13;13.90;;;15.80;99.90;;;;;;5071971;28;20318;-38
2021/06/09 01:36:13;;;;;;;15.60;14.15;;;15.80;99.90;;;;;;5071929;28;20626;-38
2021/06/09 01:38:42;;;;;;;15.52;14.10;;;15.70;99.90;;;;;;5071997;28;20307;-37
2021/06/09 01:41:10;;;;;;;15.15;13.95;;;15.80;99.90;;;;;;5071809;28;20655;-38
2021/06/09 01:43:37;;;;;;;14.32;13.13;;;15.80;99.90;;;;;;5071753;28;20261;-38
2021/06/09 01:46:05;;;;;;;15.10;13.90;;;15.70;99.90;;;;;;5072075;28;20294;-38
2021/06/09 01:48:32;;;;;;;16.33;15.00;;;15.70;99.90;;;;;;5071890;28;20207;-38
2021/06/09 01:50:59;;;;;;;15.40;14.05;;;15.70;99.90;;;;;;5071797;28;20302;-38
2021/06/09 01:53:27;;;;;;;15.90;14.52;;;15.70;99.90;;;;;;5071764;28;20231;-37
2021/06/09 01:55:58;;;;;;;16.13;14.77;;;15.70;99.90;;;;;;5071528;28;20669;-38
2021/06/09 01:58:25;;;;;;;15.15;13.95;;;15.70;99.90;;;;;;5071713;28;20231;-37
2021/06/09 02:00:55;;;;;;;15.90;14.50;;;15.60;99.90;;;;;;5071274;28;20231;-38
2021/06/09 02:03:23;;;;;;;16.85;15.35;;;15.60;99.90;;;;;;5071730;28;20294;-39
2021/06/09 02:05:50;;;;;;;15.68;14.35;;;15.60;99.90;;;;;;5071748;28;20298;-38
2021/06/09 02:08:17;;;;;;;14.45;13.35;;;15.60;99.90;;;;;;5071571;28;20764;-38
2021/06/09 02:10:45;;;;;;;15.68;14.20;;;15.60;99.90;;;;;;5071426;28;20740;-38
2021/06/09 02:13:16;;;;;;;15.75;14.45;;;15.70;99.90;;;;;;5075296;28;20237;-38
2021/06/09 02:15:45;;;;;;;16.23;14.82;;;15.70;99.90;;;;;;5075855;28;20302;-38
2021/06/09 02:18:14;;;;;;;17.38;15.98;;;15.70;99.90;;;;;;5075858;28;20253;-39
2021/06/09 02:20:44;;;;;;;17.45;15.77;;;15.60;99.90;;;;;;5075527;28;20211;-39
2021/06/09 02:23:13;;;;;;;16.40;14.95;;;15.60;99.90;;;;;;5075174;28;20207;-38
2021/06/09 02:25:42;;;;;;;16.95;15.57;;;15.60;99.90;;;;;;5075335;28;20626;-38
2021/06/09 02:28:10;;;;;;;18.13;16.52;;;15.60;99.90;;;;;;5075090;28;20242;-38
2021/06/09 02:30:42;;;;;;;17.52;15.82;;;15.60;99.90;;;;;;5075090;28;20574;-38
2021/06/09 02:33:10;;;;;;;18.27;16.70;;;15.60;99.90;;;;;;5075158;28;20230;-39
2021/06/09 02:35:38;;;;;;;17.25;15.75;;;15.60;99.90;;;;;;5075251;28;20722;-39
2021/06/09 02:38:07;;;;;;;17.48;15.98;;;15.50;99.90;;;;;;5075280;28;20218;-39
2021/06/09 02:40:35;;;;;;;17.98;16.38;;;15.60;99.90;;;;;;5075238;28;20207;-38
2021/06/09 02:43:03;;;;;;;16.60;15.07;;;15.60;99.90;;;;;;5075259;28;20545;-38
2021/06/09 02:45:31;;;;;;;16.67;15.27;;;15.50;99.90;;;;;;5075153;28;20302;-40
2021/06/09 02:48:03;;;;;;;18.17;16.52;;;15.50;99.90;;;;;;5075048;28;20203;-38
2021/06/09 02:50:31;;;;;;;16.75;15.30;;;15.50;99.90;;;;;;5075332;28;20214;-38
2021/06/09 02:53:05;;;;;;;17.63;16.08;;;15.50;99.90;;;;;;5074998;28;20322;-38
2021/06/09 02:55:43;;;;;;;17.40;15.90;;;15.50;99.90;;;;;;5075829;28;20207;-38
2021/06/09 02:58:16;;;;;;;16.95;15.30;;;15.40;99.90;;;;;;5077440;28;20271;-40
2021/06/09 03:00:54;;;;;;;16.05;14.65;;;15.40;99.90;;;;;;5076230;28;20302;-38
2021/06/09 03:03:32;;;;;;;15.52;14.23;;;15.40;99.90;;;;;;5074851;28;20234;-38
2021/06/09 03:06:03;;;;;;;16.30;14.90;;;15.50;99.90;;;;;;5074819;28;20289;-38
2021/06/09 03:08:35;;;;;;;16.23;14.65;;;15.50;99.90;;;;;;5075162;28;20302;-39
2021/06/09 03:11:11;;;;;;;16.48;14.98;;;15.50;99.90;;;;;;5074641;28;20222;-39
2021/06/09 03:13:53;;;;;;;17.00;15.50;;;15.50;99.90;;;;;;5075588;28;20652;-40
2021/06/09 03:16:25;;;;;;;17.52;15.95;;;15.50;99.90;;;;;;5075217;28;20313;-40
2021/06/09 03:18:59;;;;;;;16.45;15.13;;;15.50;99.90;;;;;;5074816;28;20408;-40
2021/06/09 03:21:33;;;;;;;17.33;15.82;;;15.50;99.90;;;;;;5074437;28;20213;-40
2021/06/09 03:24:06;;;;;;;16.92;15.32;;;15.50;99.90;;;;;;5073947;28;20658;-40
2021/06/09 03:26:42;;;;;;;16.75;15.35;;;15.40;99.90;;;;;;5074724;28;20207;-39
2021/06/09 03:29:16;;;;;;;17.70;16.27;;;15.40;99.90;;;;;;5074719;28;20268;-39
2021/06/09 03:31:47;;;;;;;17.30;15.88;;;15.40;99.90;;;;;;5074555;28;20206;-39
2021/06/09 03:34:21;;;;;;;17.15;15.45;;;15.40;99.90;;;;;;5074633;28;20238;-38
2021/06/09 03:36:50;;;;;;;19.25;15.70;;;15.40;99.90;;;;;;5074263;28;20207;-39
2021/06/09 03:39:22;;;;;;;19.13;15.77;;;15.40;99.90;;;;;;5074188;28;20677;-39
2021/06/09 03:41:53;;;;;;;16.25;14.82;;;15.40;99.90;;;;;;5074203;28;20761;-40
2021/06/09 03:44:26;;;;;;;18.00;16.30;;;15.50;99.90;;;;;;5074382;28;20298;-40
2021/06/09 03:46:54;;;;;;;17.73;16.23;;;15.50;99.90;;;;;;5074434;28;20308;-37
2021/06/09 03:49:26;;;;;;;17.20;15.70;;;15.50;99.90;;;;;;5074303;28;20302;-39
2021/06/09 03:51:55;;;;;;;17.40;15.82;;;15.60;99.90;;;;;;5074304;28;20207;-39
2021/06/09 03:54:23;;;;;;;16.60;15.23;;;15.70;99.90;;;;;;5074103;28;20227;-38
2021/06/09 03:56:54;;;;;;;16.67;15.27;;;15.70;99.90;;;;;;5074039;28;20298;-38
2021/06/09 03:59:23;;;;;;;18.38;16.50;;;15.70;99.90;;;;;;5074389;28;20294;-38
2021/06/09 04:01:52;;;;;;;17.70;16.08;;;15.80;99.90;;;;;;5073657;28;20713;-40
2021/06/09 04:04:21;;;;;;;17.85;16.40;;;15.80;99.90;;;;;;5073827;28;20620;-40
2021/06/09 04:06:53;;;;;;;17.70;16.17;;;15.80;99.90;;;;;;5073689;28;20207;-40
2021/06/09 04:09:24;;;;;;;18.52;16.65;;;15.80;99.90;;;;;;5073875;28;20246;-40
2021/06/09 04:11:55;;;;;;;20.88;18.73;;;15.70;99.90;;;;;;5074644;28;20207;-39
2021/06/09 04:14:27;;;;;;;18.52;16.80;;;15.80;99.90;;;;;;5073560;28;20595;-40
2021/06/09 04:16:58;;;;;;;19.73;17.92;;;15.90;99.90;;;;;;5073276;28;20347;-40
2021/06/09 04:19:29;;;;;;;18.67;16.63;;;16.00;99.90;;;;;;5073406;28;20264;-39
2021/06/09 04:21:59;;;;;;;17.00;15.38;;;16.10;99.90;;;;;;5073168;28;20204;-39
2021/06/09 04:24:31;;;;;;;17.27;15.75;;;16.20;99.90;;;;;;5073641;28;20668;-39
2021/06/09 04:26:59;;;;;;;15.15;13.85;;;16.20;99.90;;;;;;5073641;28;20208;-38
2021/06/09 04:29:29;;;;;;;19.48;14.77;;;16.20;99.90;;;;;;5073704;28;20211;-39
2021/06/09 04:31:57;;;;;;;16.25;14.85;;;16.20;99.90;;;;;;5073556;28;20211;-39
2021/06/09 04:34:25;;;;;;;16.13;14.73;;;16.20;99.90;;;;;;5072444;28;20310;-39
2021/06/09 04:36:53;;;;;;;16.02;14.45;;;16.20;99.90;;;;;;5073259;28;20210;-40
2021/06/09 04:39:22;;;;;;;17.80;16.17;;;16.20;99.90;;;;;;5073904;28;20294;-39
2021/06/09 04:41:52;;;;;;;14.88;13.48;;;16.30;99.90;;;;;;5073364;28;20571;-39
2021/06/09 04:44:20;;;;;;;15.13;13.55;;;16.30;99.90;;;;;;5073359;28;20277;-39
2021/06/09 04:46:52;;;;;;;15.77;14.48;;;16.40;99.90;;;;;;5073204;28;20242;-39
2021/06/09 04:49:29;;;;;;;16.20;14.73;;;16.40;99.90;;;;;;5073378;28;20657;-39
2021/06/09 04:51:58;;;;;;;15.77;13.98;;;16.40;99.90;;;;;;5073437;28;20264;-41
2021/06/09 04:54:28;;;;;;;16.13;14.73;;;16.50;99.90;;;;;;5072823;28;20298;-40
2021/06/09 04:56:57;;;;;;;14.82;13.63;;;16.50;99.90;;;;;;5073529;28;20318;-38
2021/06/09 04:59:25;;;;;;;15.00;13.75;;;16.60;99.90;;;;;;5073287;28;20268;-39
2021/06/09 05:01:52;;;;;;;16.08;14.68;;;16.70;99.90;;;;;;5072782;28;20242;-39
2021/06/09 05:04:20;;;;;;;16.10;14.80;;;16.80;99.90;;;;;;5074224;28;20207;-38
2021/06/09 05:06:48;;;;;;;16.13;14.60;;;16.90;99.90;;;;;;5073836;28;20240;-38
2021/06/09 05:09:15;;;;;;;15.60;14.25;;;17.00;99.90;;;;;;5073598;28;20314;-38
2021/06/09 05:11:50;;;;;;;15.52;14.05;;;17.10;99.90;;;;;;5073515;28;20207;-39
2021/06/09 05:14:22;;;;;;;16.55;15.10;;;17.20;99.90;;;;;;5072725;28;20675;-38
2021/06/09 05:16:52;;;;;;;15.73;14.32;;;17.30;99.90;;;;;;5073256;28;20363;-39
2021/06/09 05:19:23;;;;;;;16.65;15.25;;;17.30;99.90;;;;;;5072772;28;20302;-38
2021/06/09 05:21:55;;;;;;;15.55;14.25;;;17.30;99.90;;;;;;5073187;28;20746;-40
2021/06/09 05:24:27;;;;;;;15.80;14.35;;;17.40;99.90;;;;;;5073077;28;20235;-39
2021/06/09 05:26:57;;;;;;;16.77;15.27;;;17.40;99.90;;;;;;5072808;28;20204;-39
2021/06/09 05:29:26;;;;;;;15.80;14.50;;;17.40;99.90;;;;;;5072816;28;20651;-39
2021/06/09 05:31:55;;;;;;;17.23;15.82;;;17.40;99.90;;;;;;5073057;28;20233;-40
2021/06/09 05:34:23;;;;;;;17.95;16.25;;;17.40;99.90;;;;;;5072424;28;20223;-39
2021/06/09 05:36:51;;;;;;;16.77;15.35;;;17.50;99.90;;;;;;5073162;28;20211;-41
2021/06/09 05:39:19;;;;;;;17.20;15.63;;;17.50;99.90;;;;;;5072262;28;20270;-40
2021/06/09 05:41:47;;;;;;;16.20;14.65;;;17.60;99.90;;;;;;5072408;28;20204;-39
2021/06/09 05:44:17;;;;;;;16.33;14.95;;;17.60;99.90;;;;;;5072401;28;20272;-39
2021/06/09 05:46:46;;;;;;;17.67;16.00;;;17.70;99.90;;;;;;5072038;28;20219;-41
2021/06/09 05:49:21;;;;;;;17.00;15.50;;;17.70;99.90;;;;;;5072016;28;20209;-40
2021/06/09 05:51:50;;;;;;;18.63;17.02;;;17.70;99.90;;;;;;5072295;28;20209;-40
2021/06/09 05:54:18;;;;;;;18.58;16.85;;;17.80;99.90;;;;;;5071939;28;20227;-40
2021/06/09 05:56:46;;;;;;;18.75;17.20;;;17.90;99.90;;;;;;5072474;28;20645;-40
2021/06/09 05:59:16;;;;;;;18.67;16.80;;;17.90;99.90;;;;;;5071907;28;20785;-41
2021/06/09 06:01:45;;;;;;;18.08;16.25;;;18.00;99.90;;;;;;5071949;28;20635;-43
2021/06/09 06:04:12;;;;;;;17.77;16.27;;;18.10;99.90;;;;;;5072185;28;20233;-40
2021/06/09 06:06:40;;;;;;;17.15;15.55;;;18.30;99.90;;;;;;5072132;28;20242;-40
2021/06/09 06:09:08;;;;;;;18.52;16.65;;;18.50;99.90;;;;;;5072126;28;20207;-40
2021/06/09 06:11:36;;;;;;;19.10;17.30;;;18.60;99.90;;;;;;5072307;28;20302;-39
2021/06/09 06:14:10;;;;;;;17.75;16.15;;;18.70;99.90;;;;;;5072010;28;20342;-40
2021/06/09 06:16:49;;;;;;;17.38;15.77;;;18.90;99.90;;;;;;5071406;28;20293;-43
2021/06/09 06:19:16;;;;;;;20.17;18.35;;;19.00;99.90;;;;;;5079269;28;20638;-39
2021/06/09 06:21:44;;;;;;;19.98;18.27;;;19.20;99.90;;;;;;5071915;28;20210;-39
2021/06/09 06:24:12;;;;;;;18.98;17.27;;;19.30;99.90;;;;;;5072147;28;20257;-40
2021/06/09 06:26:40;;;;;;;19.77;17.55;;;19.30;99.90;;;;;;5071969;28;20673;-40
2021/06/09 06:29:10;;;;;;;19.05;15.85;;;19.30;99.90;;;;;;5074409;28;20294;-40
2021/06/09 06:31:39;;;;;;;19.27;17.58;;;19.40;99.90;;;;;;5078065;28;20207;-39
2021/06/09 06:34:07;;;;;;;19.05;16.55;;;19.50;99.90;;;;;;5078556;28;20682;-40
2021/06/09 06:36:37;;;;;;;18.48;16.67;;;19.60;99.90;;;;;;5074882;28;20706;-40
2021/06/09 06:39:06;;;;;;;19.98;17.98;;;19.70;99.90;;;;;;5076154;28;20298;-40
2021/06/09 06:41:34;;;;;;;19.42;17.63;;;19.80;99.90;;;;;;5077047;28;20215;-39
2021/06/09 06:44:01;;;;;;;18.42;16.73;;;19.90;99.90;;;;;;5078488;28;20211;-40
2021/06/09 06:46:29;;;;;;;18.85;17.25;;;20.00;99.90;;;;;;5077863;28;20284;-41
2021/06/09 06:49:00;;;;;;;18.83;17.17;;;20.10;99.90;;;;;;5080037;28;20207;-41
2021/06/09 06:51:27;;;;;;;18.85;17.15;;;20.20;99.90;;;;;;5071735;28;20249;-41
2021/06/09 06:53:56;;;;;;;18.27;16.80;;;20.20;99.90;;;;;;5071162;28;20326;-40
2021/06/09 06:56:25;;;;;;;17.75;16.25;;;20.30;99.90;;;;;;5071527;28;20299;-41
2021/06/09 06:58:53;;;;;;;18.58;16.95;;;20.40;99.90;;;;;;5074403;28;20222;-40
2021/06/09 07:01:23;;;;;;;18.50;17.00;;;20.40;99.90;;;;;;5074868;28;20257;-41
2021/06/09 07:03:51;;;;;;;18.95;17.27;;;20.40;99.90;;;;;;5077450;28;20203;-40
2021/06/09 07:06:20;;;;;;;16.98;15.68;;;20.30;99.90;;;;;;5079302;28;20729;-41
2021/06/09 07:08:49;;;;;;;18.98;17.33;;;20.40;99.90;;;;;;5080862;28;20207;-41
2021/06/09 07:11:38;;;;;;;17.77;16.27;;;20.50;99.90;;;;;;5078547;28;20606;-40
2021/06/09 07:14:06;;;;;;;18.75;17.05;;;20.60;99.90;;;;;;5079056;28;20223;-41
2021/06/09 07:16:35;;;;;;;18.02;16.27;;;20.70;99.90;;;;;;5074275;28;20298;-39
2021/06/09 07:19:05;;;;;;;19.08;17.48;;;20.70;99.90;;;;;;5074382;28;20211;-41
2021/06/09 07:21:35;;;;;;;18.60;16.75;;;20.70;99.90;;;;;;5074364;28;20679;-44
2021/06/09 07:24:04;;;;;;;17.80;16.15;;;20.60;99.90;;;;;;5074396;28;20662;-41
2021/06/09 07:26:35;;;;;;;19.05;17.30;;;20.60;99.90;;;;;;5074535;28;20620;-41
2021/06/09 07:29:05;;;;;;;19.48;17.75;;;20.60;99.90;;;;;;5394040;22;20251;-40
2021/06/09 07:31:36;;;;;;;18.60;16.98;;;20.80;99.90;;;;;;5074151;28;20302;-43
2021/06/09 07:34:05;;;;;;;18.60;16.88;;;20.90;99.90;;;;;;5074531;28;20635;-40
2021/06/09 07:36:40;;;;;;;17.98;16.38;;;21.00;99.90;;;;;;5074422;28;20203;-40
2021/06/09 07:39:12;;;;;;;18.35;16.60;;;21.10;99.90;;;;;;5074318;28;20213;-42
2021/06/09 07:41:43;;;;;;;18.52;16.88;;;21.30;99.90;;;;;;5074236;28;20285;-41
2021/06/09 07:44:12;;;;;;;17.60;15.95;;;21.50;99.90;;;;;;5074031;28;20294;-42
2021/06/09 07:46:42;;;;;;;17.83;16.05;;;21.60;99.90;;;;;;5074189;28;20243;-39
2021/06/09 07:49:11;;;;;;;18.05;16.40;;;21.80;99.90;;;;;;5073926;28;20669;-40
2021/06/09 07:51:43;;;;;;;18.17;16.63;;;22.00;99.90;;;;;;5073721;28;20218;-43
2021/06/09 07:54:12;;;;;;;19.10;17.50;;;22.00;99.90;;;;;;5073904;28;20223;-39
2021/06/09 07:56:43;;;;;;;18.88;17.08;;;22.00;99.90;;;;;;5073710;28;20309;-41
2021/06/09 07:59:13;;;;;;;19.17;17.48;;;22.10;99.90;;;;;;5074020;28;20241;-39
2021/06/09 08:01:42;;;;;;;19.17;17.58;;;22.20;99.90;;;;;;5073869;28;20230;-40
2021/06/09 08:04:11;;;;;;;19.50;17.80;;;22.30;99.90;;;;;;5073634;28;20601;-40
2021/06/09 08:06:43;;;;;;;17.67;16.08;;;22.30;99.90;;;;;;5073608;28;20310;-39
2021/06/09 08:09:14;;;;;;;15.85;14.55;;;22.40;99.90;;;;;;5073249;28;20203;-39
2021/06/09 08:14:47;;;;;;;16.88;15.50;;;22.60;99.90;;;;;;5071742;28;20280;-39
2021/06/09 08:17:15;;;;;;;36.17;19.40;;;22.60;99.90;;;;;;5073160;28;20737;-38
2021/06/09 08:19:43;;;;;;;16.48;14.98;;;22.70;99.90;;;;;;5073419;28;20535;-42
2021/06/09 08:22:11;;;;;;;19.30;17.60;;;22.80;99.90;;;;;;5073185;28;20207;-45
2021/06/09 08:24:39;;;;;;;18.08;16.50;;;22.90;99.90;;;;;;5072876;28;20291;-43
2021/06/09 08:27:07;;;;;;;17.73;16.15;;;22.90;99.90;;;;;;5072996;28;20242;-40
2021/06/09 08:29:37;;;;;;;17.77;16.30;;;23.00;99.90;;;;;;5072895;28;20218;-40
2021/06/09 08:32:05;;;;;;;24.42;22.05;;;23.10;99.90;;;;;;5072829;28;20215;-39
2021/06/09 08:34:33;;;;;;;18.13;16.63;;;23.10;99.90;;;;;;5072745;28;20246;-39
2021/06/09 08:37:01;;;;;;;19.90;18.05;;;23.10;99.90;;;;;;5072924;28;20299;-39
2021/06/09 08:39:31;;;;;;;19.05;17.50;;;23.20;99.90;;;;;;5072948;28;20226;-43
2021/06/09 08:42:03;;;;;;;19.42;17.83;;;23.40;99.90;;;;;;5072845;28;20309;-41
2021/06/09 08:44:34;;;;;;;21.02;18.98;;;23.50;99.90;;;;;;5072643;28;20286;-41
2021/06/09 08:47:03;;;;;;;19.42;17.85;;;23.50;99.90;;;;;;5072903;28;20531;-41
2021/06/09 08:49:33;;;;;;;19.02;17.52;;;23.50;99.90;;;;;;5072009;28;20219;-41
2021/06/09 08:52:03;;;;;;;18.70;17.20;;;23.60;99.80;;;;;;5072543;28;20212;-40
2021/06/09 08:54:33;;;;;;;17.02;15.63;;;23.80;99.50;;;;;;5072271;28;20704;-40
2021/06/09 08:57:01;;;;;;;16.85;15.25;;;23.80;99.20;;;;;;5072275;28;20212;-40
2021/06/09 08:59:28;;;;;;;15.43;14.30;;;23.80;99.00;;;;;;5072813;28;20306;-39
2021/06/09 09:01:57;;;;;;;15.10;14.00;;;23.80;98.90;;;;;;5071987;28;20243;-40
2021/06/09 09:04:26;;;;;;;16.65;15.32;;;23.80;98.80;;;;;;5072405;28;20245;-40
2021/06/09 09:06:54;;;;;;;17.35;16.00;;;24.00;98.50;;;;;;5072194;28;20623;-39
2021/06/09 09:09:23;;;;;;;17.02;15.57;;;24.10;98.10;;;;;;5072116;28;20757;-39
2021/06/09 09:11:52;;;;;;;16.63;15.27;;;24.20;97.70;;;;;;5072432;28;20212;-40
2021/06/09 09:14:20;;;;;;;15.65;14.18;;;24.20;97.60;;;;;;5071973;28;20242;-40
2021/06/09 09:17:05;;;;;;;16.38;15.18;;;24.20;97.60;;;;;;5072475;28;20264;-40
2021/06/09 09:19:36;;;;;;;16.33;14.93;;;24.40;96.90;;;;;;5072183;28;20210;-39
2021/06/09 09:22:04;;;;;;;15.20;13.90;;;24.40;97.10;;;;;;5071969;28;20238;-39
2021/06/09 09:24:41;;;;;;;16.38;14.75;;;24.40;97.00;;;;;;5072102;28;20298;-40
2021/06/09 09:27:13;;;;;;;16.73;15.32;;;24.40;96.60;;;;;;5071288;28;20213;-39
2021/06/09 09:29:40;;;;;;;16.08;14.68;;;24.50;96.70;;;;;;5072160;28;20211;-40
2021/06/09 09:32:09;;;;;;;14.48;13.18;;;24.60;96.40;;;;;;5071202;28;20691;-42
2021/06/09 09:34:39;;;;;;;14.02;12.95;;;24.90;95.90;;;;;;5071936;28;20207;-42
2021/06/09 09:37:13;;;;;;;13.70;12.50;;;25.00;95.50;;;;;;5071784;28;20211;-44
2021/06/09 09:39:42;;;;;;;13.93;12.77;;;25.30;94.70;;;;;;5071981;28;20644;-41
2021/06/09 09:42:19;;;;;;;15.02;13.57;;;25.40;94.50;;;;;;5071331;28;20736;-43
2021/06/09 09:44:47;;;;;;;15.23;13.90;;;25.40;94.10;;;;;;5071831;28;20207;-41
2021/06/09 09:47:16;;;;;;;11.75;10.77;;;25.50;94.00;;;;;;5071027;28;20211;-42
2021/06/09 09:49:44;;;;;;;13.52;12.55;;;25.60;93.50;;;;;;5071591;28;20206;-41
2021/06/09 09:52:11;;;;;;;14.65;13.55;;;25.50;93.30;;;;;;5071067;28;20238;-41
2021/06/09 09:54:48;;;;;;;12.63;11.43;;;25.40;93.30;;;;;;5071992;28;20227;-41
2021/06/09 09:57:17;;;;;;;13.65;12.50;;;25.40;93.40;;;;;;5070801;28;20611;-42
2021/06/09 09:59:55;;;;;;;12.80;11.50;;;25.50;93.50;;;;;;5070257;28;20564;-43
2021/06/09 10:02:23;;;;;;;13.93;12.82;;;25.50;92.90;;;;;;5072020;28;20658;-43
2021/06/09 10:05:09;;;;;;;14.63;13.55;;;25.40;93.00;;;;;;5071821;28;20421;-40
2021/06/09 10:07:37;;;;;;;14.23;13.10;;;25.50;92.90;;;;;;5071456;28;20424;-43
2021/06/09 10:10:06;;;;;;;13.88;12.57;;;25.50;92.70;;;;;;5071527;28;20211;-41
2021/06/09 10:12:36;;;;;;;15.05;13.75;;;25.70;92.40;;;;;;5071387;28;20250;-41
2021/06/09 10:15:05;;;;;;;16.83;15.48;;;25.80;92.50;;;;;;5071286;28;20590;-41
2021/06/09 10:17:36;;;;;;;14.98;13.75;;;25.80;92.70;;;;;;5071561;28;20207;-41
2021/06/09 10:20:06;;;;;;;14.90;13.80;;;25.80;92.90;;;;;;5071071;28;20303;-42
2021/06/09 10:22:36;;;;;;;14.50;13.40;;;25.80;92.70;;;;;;5072368;28;20684;-41
2021/06/09 10:25:09;;;;;;;13.63;12.60;;;26.00;92.40;;;;;;5075003;28;20661;-43
2021/06/09 10:27:40;;;;;;;15.07;13.73;;;26.20;92.20;;;;;;5071747;28;20215;-40
2021/06/09 10:30:23;;;;;;;13.40;12.20;;;26.20;92.10;;;;;;5072140;28;20235;-40
2021/06/09 10:32:52;;;;;;;13.07;12.07;;;26.20;91.80;;;;;;5072972;28;20296;-41
2021/06/09 10:35:25;;;;;;;12.82;11.73;;;26.20;91.90;;;;;;5075160;28;20270;-43
2021/06/09 10:37:53;;;;;;;12.60;11.55;;;26.40;91.40;;;;;;5075372;28;20601;-43
2021/06/09 10:40:26;;;;;;;14.38;13.27;;;26.40;91.20;;;;;;5075408;28;20302;-42
2021/06/09 10:42:58;;;;;;;14.43;12.98;;;26.50;90.80;;;;;;5075437;28;20288;-43
2021/06/09 10:45:26;;;;;;;12.15;11.15;;;26.40;90.70;;;;;;5075205;28;20545;-44
2021/06/09 10:47:56;;;;;;;12.05;11.00;;;26.50;90.50;;;;;;5075297;28;20211;-42
2021/06/09 10:50:24;;;;;;;13.68;12.57;;;26.80;90.20;;;;;;5075040;28;20207;-42
2021/06/09 10:52:52;;;;;;;13.85;12.75;;;27.00;89.30;;;;;;5075087;28;20215;-42
2021/06/09 10:55:20;;;;;;;14.23;12.65;;;27.20;88.40;;;;;;5075562;28;20268;-41
2021/06/09 10:57:50;;;;;;;13.02;11.93;;;27.30;87.80;;;;;;5075117;28;20235;-45
2021/06/09 11:00:20;;;;;;;13.55;12.55;;;27.10;89.00;;;;;;5075248;28;20215;-45
2021/06/09 11:02:49;;;;;;;12.60;11.57;;;26.70;90.10;;;;;;5075848;28;20245;-42
2021/06/09 11:05:18;;;;;;;12.57;11.52;;;26.40;90.60;;;;;;5074872;28;20203;-43
2021/06/09 11:07:47;;;;;;;12.75;11.75;;;26.40;91.00;;;;;;5074646;28;20262;-42
2021/06/09 11:10:16;;;;;;;14.00;12.55;;;26.40;91.10;;;;;;5074409;28;20235;-43
2021/06/09 11:12:48;;;;;;;12.70;11.70;;;26.50;90.90;;;;;;5074697;28;20239;-44
2021/06/09 11:15:20;;;;;;;13.43;12.30;;;26.60;90.40;;;;;;5075146;28;20658;-42
2021/06/09 11:17:50;;;;;;;12.18;11.27;;;26.70;90.20;;;;;;5074465;28;20250;-43
2021/06/09 11:20:21;;;;;;;14.52;13.13;;;26.80;90.30;;;;;;5074624;28;20208;-42
2021/06/09 11:23:02;;;;;;;16.08;14.50;;;26.70;91.10;;;;;;5074634;28;20207;-43
2021/06/09 11:25:31;;;;;;;14.80;13.68;;;26.50;91.70;;;;;;5074501;28;20211;-42
2021/06/09 11:28:02;;;;;;;14.90;13.70;;;26.20;92.20;;;;;;5074346;28;20572;-42
2021/06/09 11:30:53;;;;;;;13.93;12.40;;;25.80;92.30;;;;;;5074333;28;20211;-41
2021/06/09 11:33:55;;;;;;;11.77;10.57;;;25.50;92.00;;;;;;5074343;28;20578;-42
2021/06/09 11:36:43;;;;;;;10.65;9.75;;;25.20;91.80;;;;;;5074239;28;20285;-41
2021/06/09 11:39:23;;;;;;;10.40;9.43;;;24.90;91.80;;;;;;5073887;28;20262;-41
2021/06/09 11:41:52;;;;;;;10.45;9.43;;;24.60;91.50;;;;;;5075236;28;20548;-40
2021/06/09 11:44:33;;;;;;;10.45;7.93;;;24.50;91.60;;;;;;5073665;28;20289;-41
2021/06/09 11:47:19;;;;;;;8.77;7.97;;;24.40;90.60;;;;;;5074361;28;20606;-41
2021/06/09 11:49:47;;;;;;;13.38;7.10;;;24.20;89.70;;;;;;5074104;28;20207;-42
2021/06/09 11:52:16;;;;;;;8.35;7.50;;;24.10;90.30;;;;;;5074346;28;20211;-41
2021/06/09 11:54:44;;;;;;;8.77;8.05;;;23.90;90.20;;;;;;5074291;28;20636;-41
2021/06/09 11:57:21;;;;;;;18.90;8.75;;;23.80;90.20;;;;;;5073819;28;20321;-41
2021/06/09 11:59:52;;;;;;;9.73;8.93;;;23.60;90.30;;;;;;5073838;28;20290;-40
2021/06/09 12:02:22;;;;;;;11.18;9.93;;;23.40;90.70;;;;;;5073471;28;20307;-40
2021/06/09 12:04:51;;;;;;;9.70;8.70;;;23.20;90.90;;;;;;5073728;28;20219;-40
2021/06/09 12:07:23;;;;;;;10.48;9.57;;;23.10;91.20;;;;;;5074730;28;20214;-41
2021/06/09 12:09:52;;;;;;;12.15;10.63;;;23.00;91.50;;;;;;5073228;28;20659;-41
2021/06/09 12:12:22;;;;;;;10.95;10.05;;;23.00;92.00;;;;;;5073207;28;20211;-40
2021/06/09 12:14:51;;;;;;;16.77;11.45;;;23.00;92.50;;;;;;5072989;28;20239;-40
2021/06/09 12:17:24;;;;;;;14.20;12.85;;;23.00;93.00;;;;;;5073274;28;20315;-40
2021/06/09 12:19:58;;;;;;;14.25;12.23;;;23.00;93.60;;;;;;5073253;28;20212;-40
2021/06/09 12:22:29;;;;;;;13.82;12.38;;;22.90;94.10;;;;;;5073119;28;20230;-41
2021/06/09 12:24:59;;;;;;;12.45;11.23;;;22.90;94.50;;;;;;5073225;28;20214;-40
2021/06/09 12:27:27;;;;;;;14.95;13.50;;;22.90;94.80;;;;;;5073409;28;20624;-39
2021/06/09 12:29:54;;;;;;;13.90;12.55;;;22.90;95.10;;;;;;5073046;28;20207;-41
2021/06/09 12:32:26;;;;;;;13.88;12.68;;;23.00;95.30;;;;;;5073065;28;20286;-41
2021/06/09 12:34:59;;;;;;;13.70;12.40;;;23.00;95.40;;;;;;5072783;28;20249;-43
2021/06/09 12:37:29;;;;;;;13.18;12.10;;;23.10;95.60;;;;;;5072857;28;20288;-40
2021/06/09 12:39:59;;;;;;;13.35;12.15;;;23.10;95.50;;;;;;5073057;28;20243;-41
2021/06/09 12:42:27;;;;;;;13.45;12.23;;;23.20;95.50;;;;;;5072764;28;20638;-41
2021/06/09 12:44:56;;;;;;;15.02;13.73;;;23.20;95.40;;;;;;5072602;28;20286;-41
2021/06/09 12:47:32;;;;;;;14.48;13.25;;;23.10;95.50;;;;;;5072418;28;20617;-40